sensor_id;sensor_type;location;lat;lon;timestamp;P1;durP1;ratioP1;P2;durP2;ratioP2
15573;SDS011;7888;46.748;8.102;2024-03-08T08:43:02;1.17;;;0.70;;
15573;SDS011;7888;46.748;8.102;2024-03-08T08:45:29;1.63;;;0.97;;
15573;SDS011;7888;46.748;8.102;2024-03-08T08:47:56;1.30;;;0.77;;
15573;SDS011;7888;46.748;8.102;2024-03-08T08:50:24;1.70;;;0.67;;
15573;SDS011;7888;46.748;8.102;2024-03-08T08:52:53;2.43;;;0.90;;
15573;SDS011;7888;46.748;8.102;2024-03-08T08:55:20;1.07;;;0.80;;
15573;SDS011;7888;46.748;8.102;2024-03-08T08:57:49;2.27;;;1.00;;
15573;SDS011;7888;46.748;8.102;2024-03-08T09:00:17;1.00;;;0.90;;
15573;SDS011;7888;46.748;8.102;2024-03-08T09:02:45;1.00;;;0.90;;
15573;SDS011;7888;46.748;8.102;2024-03-08T09:05:12;0.80;;;0.80;;
15573;SDS011;7888;46.748;8.102;2024-03-08T09:07:39;2.97;;;0.90;;
15573;SDS011;7888;46.748;8.102;2024-03-08T09:10:05;0.90;;;0.90;;
15573;SDS011;7888;46.748;8.102;2024-03-08T09:12:34;0.90;;;0.70;;
15573;SDS011;7888;46.748;8.102;2024-03-08T09:15:00;2.33;;;0.77;;
15573;SDS011;7888;46.748;8.102;2024-03-08T09:17:26;1.10;;;0.90;;
15573;SDS011;7888;46.748;8.102;2024-03-08T09:19:52;0.70;;;0.70;;
15573;SDS011;7888;46.748;8.102;2024-03-08T09:22:19;0.77;;;0.70;;
15573;SDS011;7888;46.748;8.102;2024-03-08T09:24:45;2.77;;;0.70;;
15573;SDS011;7888;46.748;8.102;2024-03-08T09:27:10;0.87;;;0.70;;
15573;SDS011;7888;46.748;8.102;2024-03-08T09:29:36;2.37;;;0.70;;
15573;SDS011;7888;46.748;8.102;2024-03-08T09:32:02;1.00;;;0.83;;
15573;SDS011;7888;46.748;8.102;2024-03-08T09:34:28;1.17;;;0.90;;
15573;SDS011;7888;46.748;8.102;2024-03-08T09:36:55;1.10;;;1.00;;
15573;SDS011;7888;46.748;8.102;2024-03-08T09:39:21;3.17;;;1.00;;
15573;SDS011;7888;46.748;8.102;2024-03-08T09:41:47;1.20;;;0.80;;
15573;SDS011;7888;46.748;8.102;2024-03-08T09:44:13;1.33;;;1.00;;
15573;SDS011;7888;46.748;8.102;2024-03-08T09:46:40;1.50;;;0.87;;
15573;SDS011;7888;46.748;8.102;2024-03-08T09:49:06;1.17;;;0.90;;
15573;SDS011;7888;46.748;8.102;2024-03-08T09:51:33;2.57;;;1.10;;
15573;SDS011;7888;46.748;8.102;2024-03-08T09:54:05;2.00;;;1.00;;
15573;SDS011;7888;46.748;8.102;2024-03-08T09:56:34;1.40;;;1.00;;
15573;SDS011;7888;46.748;8.102;2024-03-08T09:59:01;3.90;;;1.10;;
15573;SDS011;7888;46.748;8.102;2024-03-08T10:01:36;2.00;;;0.70;;
15573;SDS011;7888;46.748;8.102;2024-03-08T10:04:03;1.17;;;1.00;;
15573;SDS011;7888;46.748;8.102;2024-03-08T10:06:30;1.67;;;0.93;;
15573;SDS011;7888;46.748;8.102;2024-03-08T10:08:56;1.17;;;0.83;;
15573;SDS011;7888;46.748;8.102;2024-03-08T10:11:22;1.40;;;1.00;;
15573;SDS011;7888;46.748;8.102;2024-03-08T10:13:50;1.17;;;0.80;;
15573;SDS011;7888;46.748;8.102;2024-03-08T10:16:16;2.40;;;1.20;;
15573;SDS011;7888;46.748;8.102;2024-03-08T10:18:45;1.47;;;1.10;;
15573;SDS011;7888;46.748;8.102;2024-03-08T10:21:11;1.80;;;1.40;;
15573;SDS011;7888;46.748;8.102;2024-03-08T10:23:40;1.83;;;1.20;;
15573;SDS011;7888;46.748;8.102;2024-03-08T10:26:17;2.40;;;1.30;;
15573;SDS011;7888;46.748;8.102;2024-03-08T10:28:50;3.33;;;1.60;;
15573;SDS011;7888;46.748;8.102;2024-03-08T10:31:18;3.63;;;1.30;;
15573;SDS011;7888;46.748;8.102;2024-03-08T10:33:45;1.87;;;1.40;;
15573;SDS011;7888;46.748;8.102;2024-03-08T10:36:13;1.37;;;1.27;;
15573;SDS011;7888;46.748;8.102;2024-03-08T10:38:40;1.40;;;1.30;;
15573;SDS011;7888;46.748;8.102;2024-03-08T10:41:11;2.10;;;1.70;;
15573;SDS011;7888;46.748;8.102;2024-03-08T10:44:02;3.73;;;1.70;;
15573;SDS011;7888;46.748;8.102;2024-03-08T10:47:01;1.57;;;1.47;;
15573;SDS011;7888;46.748;8.102;2024-03-08T10:50:01;1.70;;;1.40;;
15573;SDS011;7888;46.748;8.102;2024-03-08T10:52:39;2.37;;;1.40;;
15573;SDS011;7888;46.748;8.102;2024-03-08T10:55:05;2.23;;;1.70;;
15573;SDS011;7888;46.748;8.102;2024-03-08T10:57:38;1.53;;;1.43;;
15573;SDS011;7888;46.748;8.102;2024-03-08T11:00:06;2.03;;;1.83;;
15573;SDS011;7888;46.748;8.102;2024-03-08T11:02:36;1.97;;;1.77;;
15573;SDS011;7888;46.748;8.102;2024-03-08T11:05:03;2.63;;;1.77;;
15573;SDS011;7888;46.748;8.102;2024-03-08T11:07:34;2.30;;;1.80;;
15573;SDS011;7888;46.748;8.102;2024-03-08T11:10:02;3.33;;;1.80;;
15573;SDS011;7888;46.748;8.102;2024-03-08T11:12:36;2.20;;;1.73;;
15573;SDS011;7888;46.748;8.102;2024-03-08T11:15:09;4.40;;;2.07;;
15573;SDS011;7888;46.748;8.102;2024-03-08T11:20:04;1.97;;;1.60;;
15573;SDS011;7888;46.748;8.102;2024-03-08T11:30:43;2.13;;;1.90;;
15573;SDS011;7888;46.748;8.102;2024-03-08T11:33:35;1.77;;;1.60;;
15573;SDS011;7888;46.748;8.102;2024-03-08T11:36:10;2.10;;;1.90;;
15573;SDS011;7888;46.748;8.102;2024-03-08T11:38:41;2.30;;;2.10;;
15573;SDS011;7888;46.748;8.102;2024-03-08T11:41:17;3.23;;;1.80;;
15573;SDS011;7888;46.748;8.102;2024-03-08T11:43:46;1.83;;;1.70;;
15573;SDS011;7888;46.748;8.102;2024-03-08T11:46:13;1.80;;;1.70;;
15573;SDS011;7888;46.748;8.102;2024-03-08T11:48:44;2.40;;;2.10;;
15573;SDS011;7888;46.748;8.102;2024-03-08T11:51:13;2.13;;;1.80;;
15573;SDS011;7888;46.748;8.102;2024-03-08T11:53:40;2.03;;;1.83;;
15573;SDS011;7888;46.748;8.102;2024-03-08T11:56:07;3.73;;;2.23;;
15573;SDS011;7888;46.748;8.102;2024-03-08T11:58:38;2.00;;;1.70;;
15573;SDS011;7888;46.748;8.102;2024-03-08T12:01:08;2.87;;;1.70;;
15573;SDS011;7888;46.748;8.102;2024-03-08T12:03:38;2.83;;;1.80;;
15573;SDS011;7888;46.748;8.102;2024-03-08T12:06:05;2.20;;;2.00;;
15573;SDS011;7888;46.748;8.102;2024-03-08T12:08:30;3.93;;;1.70;;
15573;SDS011;7888;46.748;8.102;2024-03-08T12:10:57;2.50;;;1.60;;
15573;SDS011;7888;46.748;8.102;2024-03-08T12:13:34;2.50;;;2.30;;
15573;SDS011;7888;46.748;8.102;2024-03-08T12:16:04;2.00;;;1.80;;
15573;SDS011;7888;46.748;8.102;2024-03-08T12:18:33;3.03;;;2.03;;
15573;SDS011;7888;46.748;8.102;2024-03-08T12:23:36;2.70;;;2.50;;
15573;SDS011;7888;46.748;8.102;2024-03-08T12:26:17;2.63;;;2.00;;
15573;SDS011;7888;46.748;8.102;2024-03-08T12:28:49;4.00;;;2.30;;
15573;SDS011;7888;46.748;8.102;2024-03-08T12:31:18;2.30;;;2.10;;
15573;SDS011;7888;46.748;8.102;2024-03-08T12:33:53;2.97;;;2.50;;
15573;SDS011;7888;46.748;8.102;2024-03-08T12:36:24;4.20;;;1.90;;
15573;SDS011;7888;46.748;8.102;2024-03-08T12:38:50;2.00;;;1.90;;
15573;SDS011;7888;46.748;8.102;2024-03-08T12:41:19;3.30;;;1.83;;
15573;SDS011;7888;46.748;8.102;2024-03-08T12:43:46;2.33;;;2.13;;
15573;SDS011;7888;46.748;8.102;2024-03-08T12:46:19;2.40;;;2.20;;
15573;SDS011;7888;46.748;8.102;2024-03-08T12:48:46;2.60;;;2.23;;
15573;SDS011;7888;46.748;8.102;2024-03-08T12:51:13;2.60;;;2.40;;
15573;SDS011;7888;46.748;8.102;2024-03-08T12:53:40;3.00;;;1.93;;
15573;SDS011;7888;46.748;8.102;2024-03-08T12:56:10;2.00;;;1.10;;
15573;SDS011;7888;46.748;8.102;2024-03-08T12:58:55;2.10;;;1.90;;
15573;SDS011;7888;46.748;8.102;2024-03-08T13:01:21;2.43;;;2.10;;
15573;SDS011;7888;46.748;8.102;2024-03-08T13:03:47;2.83;;;1.90;;
15573;SDS011;7888;46.748;8.102;2024-03-08T13:06:14;2.20;;;1.77;;
15573;SDS011;7888;46.748;8.102;2024-03-08T13:08:41;2.20;;;2.00;;
15573;SDS011;7888;46.748;8.102;2024-03-08T13:11:08;2.87;;;2.00;;
15573;SDS011;7888;46.748;8.102;2024-03-08T13:13:38;2.40;;;2.00;;
15573;SDS011;7888;46.748;8.102;2024-03-08T13:16:06;12.67;;;3.37;;
15573;SDS011;7888;46.748;8.102;2024-03-08T13:18:35;8.10;;;3.73;;
15573;SDS011;7888;46.748;8.102;2024-03-08T13:21:01;6.37;;;2.03;;
15573;SDS011;7888;46.748;8.102;2024-03-08T13:23:31;3.77;;;2.03;;
15573;SDS011;7888;46.748;8.102;2024-03-08T13:25:57;3.43;;;2.80;;
15573;SDS011;7888;46.748;8.102;2024-03-08T13:28:23;4.43;;;2.43;;
15573;SDS011;7888;46.748;8.102;2024-03-08T13:30:54;2.67;;;2.20;;
15573;SDS011;7888;46.748;8.102;2024-03-08T13:33:23;3.53;;;2.37;;
15573;SDS011;7888;46.748;8.102;2024-03-08T13:35:49;2.90;;;2.40;;
15573;SDS011;7888;46.748;8.102;2024-03-08T13:38:16;2.73;;;2.47;;
15573;SDS011;7888;46.748;8.102;2024-03-08T13:40:44;2.80;;;2.53;;
15573;SDS011;7888;46.748;8.102;2024-03-08T13:43:10;1.80;;;1.70;;
15573;SDS011;7888;46.748;8.102;2024-03-08T13:45:36;3.23;;;2.40;;
15573;SDS011;7888;46.748;8.102;2024-03-08T13:48:03;2.40;;;2.20;;
15573;SDS011;7888;46.748;8.102;2024-03-08T13:50:30;2.50;;;2.30;;
15573;SDS011;7888;46.748;8.102;2024-03-08T13:52:56;3.60;;;2.97;;
15573;SDS011;7888;46.748;8.102;2024-03-08T13:55:22;2.47;;;2.20;;
15573;SDS011;7888;46.748;8.102;2024-03-08T13:57:50;2.03;;;1.90;;
15573;SDS011;7888;46.748;8.102;2024-03-08T14:00:16;2.67;;;2.20;;
15573;SDS011;7888;46.748;8.102;2024-03-08T14:02:42;3.00;;;2.70;;
15573;SDS011;7888;46.748;8.102;2024-03-08T14:05:09;3.03;;;2.40;;
15573;SDS011;7888;46.748;8.102;2024-03-08T14:07:36;2.60;;;2.40;;
15573;SDS011;7888;46.748;8.102;2024-03-08T14:10:02;3.57;;;2.67;;
15573;SDS011;7888;46.748;8.102;2024-03-08T14:12:29;3.63;;;2.17;;
15573;SDS011;7888;46.748;8.102;2024-03-08T14:14:55;2.17;;;1.97;;
15573;SDS011;7888;46.748;8.102;2024-03-08T14:17:24;2.70;;;1.60;;
15573;SDS011;7888;46.748;8.102;2024-03-08T14:19:52;0.80;;;0.77;;
15573;SDS011;7888;46.748;8.102;2024-03-08T14:22:19;2.77;;;2.07;;
15573;SDS011;7888;46.748;8.102;2024-03-08T14:24:45;4.57;;;1.77;;
15573;SDS011;7888;46.748;8.102;2024-03-08T14:27:11;2.43;;;2.23;;
15573;SDS011;7888;46.748;8.102;2024-03-08T14:29:37;2.37;;;2.17;;
15573;SDS011;7888;46.748;8.102;2024-03-08T14:32:06;2.57;;;2.37;;
15573;SDS011;7888;46.748;8.102;2024-03-08T14:34:33;2.67;;;2.20;;
15573;SDS011;7888;46.748;8.102;2024-03-08T14:36:59;3.83;;;2.00;;
15573;SDS011;7888;46.748;8.102;2024-03-08T14:39:26;2.17;;;1.97;;
15573;SDS011;7888;46.748;8.102;2024-03-08T14:41:54;2.00;;;1.50;;
15573;SDS011;7888;46.748;8.102;2024-03-08T14:44:21;2.07;;;1.30;;
15573;SDS011;7888;46.748;8.102;2024-03-08T14:46:50;2.63;;;2.23;;
15573;SDS011;7888;46.748;8.102;2024-03-08T14:49:21;1.90;;;1.70;;
15573;SDS011;7888;46.748;8.102;2024-03-08T14:51:47;2.63;;;2.43;;
15573;SDS011;7888;46.748;8.102;2024-03-08T14:54:13;1.63;;;1.40;;
15573;SDS011;7888;46.748;8.102;2024-03-08T14:56:39;2.93;;;1.10;;
15573;SDS011;7888;46.748;8.102;2024-03-08T14:59:08;2.77;;;1.50;;
15573;SDS011;7888;46.748;8.102;2024-03-08T15:01:34;1.80;;;1.70;;
15573;SDS011;7888;46.748;8.102;2024-03-08T15:04:03;2.83;;;2.07;;
15573;SDS011;7888;46.748;8.102;2024-03-08T15:06:35;1.70;;;1.47;;
15573;SDS011;7888;46.748;8.102;2024-03-08T15:09:07;1.33;;;0.73;;
15573;SDS011;7888;46.748;8.102;2024-03-08T15:11:38;0.30;;;0.30;;
15573;SDS011;7888;46.748;8.102;2024-03-08T15:14:08;1.43;;;0.40;;
15573;SDS011;7888;46.748;8.102;2024-03-08T15:16:40;1.33;;;0.40;;
15573;SDS011;7888;46.748;8.102;2024-03-08T15:19:07;0.63;;;0.47;;
15573;SDS011;7888;46.748;8.102;2024-03-08T15:21:33;0.67;;;0.20;;
15573;SDS011;7888;46.748;8.102;2024-03-08T15:23:59;0.20;;;0.20;;
15573;SDS011;7888;46.748;8.102;2024-03-08T15:26:29;0.20;;;0.20;;
15573;SDS011;7888;46.748;8.102;2024-03-08T15:28:56;0.40;;;0.30;;
15573;SDS011;7888;46.748;8.102;2024-03-08T15:31:22;0.20;;;0.20;;
15573;SDS011;7888;46.748;8.102;2024-03-08T15:33:52;0.47;;;0.20;;
15573;SDS011;7888;46.748;8.102;2024-03-08T15:36:25;0.20;;;0.20;;
15573;SDS011;7888;46.748;8.102;2024-03-08T15:38:56;0.30;;;0.30;;
15573;SDS011;7888;46.748;8.102;2024-03-08T15:41:22;0.30;;;0.30;;
15573;SDS011;7888;46.748;8.102;2024-03-08T15:43:48;1.03;;;0.20;;
15573;SDS011;7888;46.748;8.102;2024-03-08T15:46:15;0.47;;;0.20;;
15573;SDS011;7888;46.748;8.102;2024-03-08T15:48:41;0.10;;;0.10;;
15573;SDS011;7888;46.748;8.102;2024-03-08T15:51:07;0.53;;;0.40;;
15573;SDS011;7888;46.748;8.102;2024-03-08T15:53:35;0.20;;;0.20;;
15573;SDS011;7888;46.748;8.102;2024-03-08T15:56:05;0.20;;;0.20;;
15573;SDS011;7888;46.748;8.102;2024-03-08T15:58:33;1.23;;;0.20;;
15573;SDS011;7888;46.748;8.102;2024-03-08T16:01:00;0.67;;;0.20;;
15573;SDS011;7888;46.748;8.102;2024-03-08T16:03:31;0.20;;;0.20;;
15573;SDS011;7888;46.748;8.102;2024-03-08T16:05:57;0.40;;;0.30;;
15573;SDS011;7888;46.748;8.102;2024-03-08T16:08:24;0.20;;;0.20;;
15573;SDS011;7888;46.748;8.102;2024-03-08T16:10:51;0.20;;;0.20;;
15573;SDS011;7888;46.748;8.102;2024-03-08T16:13:28;0.23;;;0.23;;
15573;SDS011;7888;46.748;8.102;2024-03-08T16:15:54;0.13;;;0.13;;
15573;SDS011;7888;46.748;8.102;2024-03-08T16:18:21;0.93;;;0.20;;
15573;SDS011;7888;46.748;8.102;2024-03-08T16:20:50;0.10;;;0.10;;
15573;SDS011;7888;46.748;8.102;2024-03-08T16:23:17;0.20;;;0.20;;
15573;SDS011;7888;46.748;8.102;2024-03-08T16:25:44;0.20;;;0.20;;
15573;SDS011;7888;46.748;8.102;2024-03-08T16:28:10;0.20;;;0.20;;
15573;SDS011;7888;46.748;8.102;2024-03-08T16:30:38;0.53;;;0.20;;
15573;SDS011;7888;46.748;8.102;2024-03-08T16:33:07;0.10;;;0.10;;
15573;SDS011;7888;46.748;8.102;2024-03-08T16:35:33;0.70;;;0.20;;
15573;SDS011;7888;46.748;8.102;2024-03-08T16:38:04;0.20;;;0.20;;
15573;SDS011;7888;46.748;8.102;2024-03-08T16:40:32;0.30;;;0.30;;
15573;SDS011;7888;46.748;8.102;2024-03-08T16:42:58;0.50;;;0.30;;
15573;SDS011;7888;46.748;8.102;2024-03-08T16:45:23;0.30;;;0.30;;
15573;SDS011;7888;46.748;8.102;2024-03-08T16:47:51;2.10;;;0.20;;
15573;SDS011;7888;46.748;8.102;2024-03-08T16:50:18;0.53;;;0.20;;
15573;SDS011;7888;46.748;8.102;2024-03-08T16:52:44;0.20;;;0.20;;
15573;SDS011;7888;46.748;8.102;2024-03-08T16:55:13;1.03;;;0.30;;
15573;SDS011;7888;46.748;8.102;2024-03-08T16:57:40;0.37;;;0.33;;
15573;SDS011;7888;46.748;8.102;2024-03-08T17:00:16;0.23;;;0.23;;
15573;SDS011;7888;46.748;8.102;2024-03-08T17:02:50;0.30;;;0.30;;
15573;SDS011;7888;46.748;8.102;2024-03-08T17:05:17;0.27;;;0.27;;
15573;SDS011;7888;46.748;8.102;2024-03-08T17:07:44;1.93;;;0.30;;
15573;SDS011;7888;46.748;8.102;2024-03-08T17:10:14;0.27;;;0.27;;
15573;SDS011;7888;46.748;8.102;2024-03-08T17:12:44;0.20;;;0.20;;
15573;SDS011;7888;46.748;8.102;2024-03-08T17:15:17;0.30;;;0.20;;
15573;SDS011;7888;46.748;8.102;2024-03-08T17:17:48;0.40;;;0.40;;
15573;SDS011;7888;46.748;8.102;2024-03-08T17:20:18;0.30;;;0.30;;
15573;SDS011;7888;46.748;8.102;2024-03-08T17:22:48;0.33;;;0.20;;
15573;SDS011;7888;46.748;8.102;2024-03-08T17:25:19;0.40;;;0.40;;
15573;SDS011;7888;46.748;8.102;2024-03-08T17:27:47;0.20;;;0.20;;
15573;SDS011;7888;46.748;8.102;2024-03-08T17:30:19;0.53;;;0.37;;
15573;SDS011;7888;46.748;8.102;2024-03-08T17:32:50;0.43;;;0.40;;
15573;SDS011;7888;46.748;8.102;2024-03-08T17:35:22;0.30;;;0.30;;
15573;SDS011;7888;46.748;8.102;2024-03-08T17:37:54;0.20;;;0.20;;
15573;SDS011;7888;46.748;8.102;2024-03-08T17:40:22;0.30;;;0.30;;
15573;SDS011;7888;46.748;8.102;2024-03-08T17:42:52;0.30;;;0.30;;
15573;SDS011;7888;46.748;8.102;2024-03-08T17:45:20;0.20;;;0.20;;
15573;SDS011;7888;46.748;8.102;2024-03-08T17:47:48;0.27;;;0.27;;
15573;SDS011;7888;46.748;8.102;2024-03-08T17:50:17;0.20;;;0.20;;
15573;SDS011;7888;46.748;8.102;2024-03-08T17:52:47;0.20;;;0.20;;
15573;SDS011;7888;46.748;8.102;2024-03-08T17:55:15;0.30;;;0.30;;
15573;SDS011;7888;46.748;8.102;2024-03-08T17:57:48;13.50;;;0.70;;
15573;SDS011;7888;46.748;8.102;2024-03-08T18:00:17;0.20;;;0.20;;
15573;SDS011;7888;46.748;8.102;2024-03-08T18:02:57;0.30;;;0.30;;
15573;SDS011;7888;46.748;8.102;2024-03-08T18:05:24;0.30;;;0.30;;
15573;SDS011;7888;46.748;8.102;2024-03-08T18:07:55;1.10;;;0.40;;
15573;SDS011;7888;46.748;8.102;2024-03-08T18:10:22;0.40;;;0.30;;
15573;SDS011;7888;46.748;8.102;2024-03-08T18:12:50;0.30;;;0.30;;
15573;SDS011;7888;46.748;8.102;2024-03-08T18:15:18;0.37;;;0.37;;
15573;SDS011;7888;46.748;8.102;2024-03-08T18:17:53;0.30;;;0.30;;
15573;SDS011;7888;46.748;8.102;2024-03-08T18:20:21;0.30;;;0.30;;
15573;SDS011;7888;46.748;8.102;2024-03-08T18:23:00;0.37;;;0.30;;
15573;SDS011;7888;46.748;8.102;2024-03-08T18:25:29;0.50;;;0.30;;
15573;SDS011;7888;46.748;8.102;2024-03-08T18:27:57;0.40;;;0.30;;
15573;SDS011;7888;46.748;8.102;2024-03-08T18:30:30;0.40;;;0.40;;
15573;SDS011;7888;46.748;8.102;2024-03-08T18:33:02;0.57;;;0.40;;
15573;SDS011;7888;46.748;8.102;2024-03-08T18:35:32;0.27;;;0.20;;
15573;SDS011;7888;46.748;8.102;2024-03-08T18:37:59;0.30;;;0.30;;
15573;SDS011;7888;46.748;8.102;2024-03-08T18:40:25;2.20;;;0.40;;
15573;SDS011;7888;46.748;8.102;2024-03-08T18:42:52;0.40;;;0.40;;
15573;SDS011;7888;46.748;8.102;2024-03-08T18:45:20;0.40;;;0.30;;
15573;SDS011;7888;46.748;8.102;2024-03-08T18:47:50;0.60;;;0.60;;
15573;SDS011;7888;46.748;8.102;2024-03-08T18:50:21;0.50;;;0.50;;
15573;SDS011;7888;46.748;8.102;2024-03-08T18:52:49;0.40;;;0.40;;
15573;SDS011;7888;46.748;8.102;2024-03-08T18:55:16;0.30;;;0.30;;
15573;SDS011;7888;46.748;8.102;2024-03-08T18:57:48;0.30;;;0.30;;
15573;SDS011;7888;46.748;8.102;2024-03-08T19:00:18;0.60;;;0.50;;
15573;SDS011;7888;46.748;8.102;2024-03-08T19:02:49;1.13;;;0.30;;
15573;SDS011;7888;46.748;8.102;2024-03-08T19:05:17;0.40;;;0.40;;
15573;SDS011;7888;46.748;8.102;2024-03-08T19:07:44;0.20;;;0.20;;
15573;SDS011;7888;46.748;8.102;2024-03-08T19:10:12;0.43;;;0.43;;
15573;SDS011;7888;46.748;8.102;2024-03-08T19:12:44;1.07;;;0.40;;
15573;SDS011;7888;46.748;8.102;2024-03-08T19:15:26;0.53;;;0.40;;
15573;SDS011;7888;46.748;8.102;2024-03-08T19:17:57;1.00;;;0.60;;
15573;SDS011;7888;46.748;8.102;2024-03-08T19:20:25;0.60;;;0.43;;
15573;SDS011;7888;46.748;8.102;2024-03-08T19:22:54;0.90;;;0.50;;
15573;SDS011;7888;46.748;8.102;2024-03-08T19:25:24;0.47;;;0.47;;
15573;SDS011;7888;46.748;8.102;2024-03-08T19:28:01;0.40;;;0.40;;
15573;SDS011;7888;46.748;8.102;2024-03-08T19:30:29;0.50;;;0.50;;
15573;SDS011;7888;46.748;8.102;2024-03-08T19:33:00;0.50;;;0.50;;
15573;SDS011;7888;46.748;8.102;2024-03-08T19:35:28;0.97;;;0.60;;
15573;SDS011;7888;46.748;8.102;2024-03-08T19:37:56;1.13;;;0.40;;
15573;SDS011;7888;46.748;8.102;2024-03-08T19:40:24;0.70;;;0.70;;
15573;SDS011;7888;46.748;8.102;2024-03-08T19:42:57;1.13;;;0.60;;
15573;SDS011;7888;46.748;8.102;2024-03-08T19:45:24;0.70;;;0.70;;
15573;SDS011;7888;46.748;8.102;2024-03-08T19:47:52;1.10;;;1.00;;
15573;SDS011;7888;46.748;8.102;2024-03-08T19:50:26;0.90;;;0.90;;
15573;SDS011;7888;46.748;8.102;2024-03-08T19:52:54;1.57;;;1.30;;
15573;SDS011;7888;46.748;8.102;2024-03-08T19:55:29;1.63;;;1.40;;
15573;SDS011;7888;46.748;8.102;2024-03-08T19:57:57;2.30;;;1.30;;
15573;SDS011;7888;46.748;8.102;2024-03-08T20:00:25;1.97;;;1.70;;
15573;SDS011;7888;46.748;8.102;2024-03-08T20:02:54;2.27;;;1.90;;
15573;SDS011;7888;46.748;8.102;2024-03-08T20:05:21;1.87;;;1.73;;
15573;SDS011;7888;46.748;8.102;2024-03-08T20:07:50;2.67;;;1.70;;
15573;SDS011;7888;46.748;8.102;2024-03-08T20:10:20;2.93;;;1.70;;
15573;SDS011;7888;46.748;8.102;2024-03-08T20:12:48;3.10;;;1.97;;
15573;SDS011;7888;46.748;8.102;2024-03-08T20:15:16;2.00;;;1.83;;
15573;SDS011;7888;46.748;8.102;2024-03-08T20:17:43;2.13;;;1.97;;
15573;SDS011;7888;46.748;8.102;2024-03-08T20:20:11;2.20;;;2.00;;
15573;SDS011;7888;46.748;8.102;2024-03-08T20:22:40;3.10;;;2.20;;
15573;SDS011;7888;46.748;8.102;2024-03-08T20:25:11;2.30;;;2.10;;
15573;SDS011;7888;46.748;8.102;2024-03-08T20:27:47;2.30;;;2.10;;
15573;SDS011;7888;46.748;8.102;2024-03-08T20:30:21;2.20;;;2.00;;
15573;SDS011;7888;46.748;8.102;2024-03-08T20:32:52;2.73;;;2.03;;
15573;SDS011;7888;46.748;8.102;2024-03-08T20:35:25;2.60;;;2.40;;
15573;SDS011;7888;46.748;8.102;2024-03-08T20:37:54;2.70;;;2.30;;
15573;SDS011;7888;46.748;8.102;2024-03-08T20:40:21;2.40;;;2.20;;
15573;SDS011;7888;46.748;8.102;2024-03-08T20:42:50;2.07;;;1.83;;
15573;SDS011;7888;46.748;8.102;2024-03-08T20:45:16;5.70;;;2.40;;
15573;SDS011;7888;46.748;8.102;2024-03-08T20:47:42;2.83;;;2.47;;
15573;SDS011;7888;46.748;8.102;2024-03-08T20:50:08;2.53;;;2.20;;
15573;SDS011;7888;46.748;8.102;2024-03-08T20:52:41;2.10;;;1.83;;
15573;SDS011;7888;46.748;8.102;2024-03-08T20:55:11;2.07;;;1.87;;
15573;SDS011;7888;46.748;8.102;2024-03-08T20:57:39;2.53;;;2.13;;
15573;SDS011;7888;46.748;8.102;2024-03-08T21:00:10;2.60;;;2.33;;
15573;SDS011;7888;46.748;8.102;2024-03-08T21:02:47;2.87;;;2.13;;
15573;SDS011;7888;46.748;8.102;2024-03-08T21:05:13;2.33;;;2.13;;
15573;SDS011;7888;46.748;8.102;2024-03-08T21:07:44;2.30;;;2.10;;
15573;SDS011;7888;46.748;8.102;2024-03-08T21:10:10;2.00;;;1.80;;
15573;SDS011;7888;46.748;8.102;2024-03-08T21:12:39;1.73;;;1.60;;
15573;SDS011;7888;46.748;8.102;2024-03-08T21:15:06;2.50;;;2.10;;
15573;SDS011;7888;46.748;8.102;2024-03-08T21:17:36;2.53;;;2.20;;
15573;SDS011;7888;46.748;8.102;2024-03-08T21:20:04;2.73;;;2.43;;
15573;SDS011;7888;46.748;8.102;2024-03-08T21:22:34;2.67;;;2.47;;
15573;SDS011;7888;46.748;8.102;2024-03-08T21:25:00;2.73;;;2.53;;
15573;SDS011;7888;46.748;8.102;2024-03-08T21:27:28;3.77;;;2.93;;
15573;SDS011;7888;46.748;8.102;2024-03-08T21:29:54;2.87;;;2.67;;
15573;SDS011;7888;46.748;8.102;2024-03-08T21:32:21;3.40;;;3.10;;
15573;SDS011;7888;46.748;8.102;2024-03-08T21:34:47;4.17;;;2.77;;
15573;SDS011;7888;46.748;8.102;2024-03-08T21:37:14;4.17;;;3.37;;
15573;SDS011;7888;46.748;8.102;2024-03-08T21:39:40;3.63;;;3.23;;
15573;SDS011;7888;46.748;8.102;2024-03-08T21:42:06;4.37;;;3.20;;
15573;SDS011;7888;46.748;8.102;2024-03-08T21:44:33;3.53;;;3.23;;
15573;SDS011;7888;46.748;8.102;2024-03-08T21:46:58;3.43;;;2.97;;
15573;SDS011;7888;46.748;8.102;2024-03-08T21:49:26;3.90;;;3.50;;
15573;SDS011;7888;46.748;8.102;2024-03-08T21:51:51;4.67;;;3.67;;
15573;SDS011;7888;46.748;8.102;2024-03-08T21:54:17;5.10;;;3.90;;
15573;SDS011;7888;46.748;8.102;2024-03-08T21:56:44;5.00;;;3.93;;
15573;SDS011;7888;46.748;8.102;2024-03-08T21:59:09;3.87;;;3.33;;
15573;SDS011;7888;46.748;8.102;2024-03-08T22:01:35;6.77;;;5.03;;
15573;SDS011;7888;46.748;8.102;2024-03-08T22:04:01;7.77;;;6.13;;
15573;SDS011;7888;46.748;8.102;2024-03-08T22:06:27;8.07;;;7.20;;
15573;SDS011;7888;46.748;8.102;2024-03-08T22:08:53;9.77;;;7.03;;
15573;SDS011;7888;46.748;8.102;2024-03-08T22:11:19;8.63;;;7.60;;
15573;SDS011;7888;46.748;8.102;2024-03-08T22:13:45;9.77;;;7.10;;
15573;SDS011;7888;46.748;8.102;2024-03-08T22:16:11;9.07;;;7.73;;
15573;SDS011;7888;46.748;8.102;2024-03-08T22:18:38;9.37;;;7.50;;
15573;SDS011;7888;46.748;8.102;2024-03-08T22:21:05;10.67;;;8.57;;
15573;SDS011;7888;46.748;8.102;2024-03-08T22:23:34;10.97;;;7.80;;
15573;SDS011;7888;46.748;8.102;2024-03-08T22:25:59;11.53;;;8.03;;
15573;SDS011;7888;46.748;8.102;2024-03-08T22:28:25;10.13;;;7.90;;
15573;SDS011;7888;46.748;8.102;2024-03-08T22:30:52;10.03;;;8.00;;
15573;SDS011;7888;46.748;8.102;2024-03-08T22:33:23;9.77;;;8.30;;
15573;SDS011;7888;46.748;8.102;2024-03-08T22:35:50;10.13;;;8.37;;
15573;SDS011;7888;46.748;8.102;2024-03-08T22:38:16;10.63;;;7.73;;
15573;SDS011;7888;46.748;8.102;2024-03-08T22:40:43;9.97;;;8.23;;
15573;SDS011;7888;46.748;8.102;2024-03-08T22:43:08;10.80;;;8.73;;
15573;SDS011;7888;46.748;8.102;2024-03-08T22:45:35;10.63;;;8.03;;
15573;SDS011;7888;46.748;8.102;2024-03-08T22:48:02;11.17;;;8.67;;
15573;SDS011;7888;46.748;8.102;2024-03-08T22:50:31;10.40;;;8.60;;
15573;SDS011;7888;46.748;8.102;2024-03-08T22:52:58;10.80;;;8.40;;
15573;SDS011;7888;46.748;8.102;2024-03-08T22:55:25;9.73;;;7.93;;
15573;SDS011;7888;46.748;8.102;2024-03-08T22:57:51;11.90;;;8.60;;
15573;SDS011;7888;46.748;8.102;2024-03-08T23:00:17;10.53;;;7.77;;
15573;SDS011;7888;46.748;8.102;2024-03-08T23:02:50;10.77;;;7.10;;
15573;SDS011;7888;46.748;8.102;2024-03-08T23:05:17;12.47;;;8.63;;
15573;SDS011;7888;46.748;8.102;2024-03-08T23:07:44;11.50;;;8.23;;
15573;SDS011;7888;46.748;8.102;2024-03-08T23:10:13;10.27;;;8.43;;
15573;SDS011;7888;46.748;8.102;2024-03-08T23:12:41;10.13;;;8.73;;
15573;SDS011;7888;46.748;8.102;2024-03-08T23:15:09;10.23;;;8.10;;
15573;SDS011;7888;46.748;8.102;2024-03-08T23:17:42;12.40;;;9.00;;
15573;SDS011;7888;46.748;8.102;2024-03-08T23:20:11;12.27;;;9.23;;
15573;SDS011;7888;46.748;8.102;2024-03-08T23:22:50;9.43;;;8.40;;
15573;SDS011;7888;46.748;8.102;2024-03-08T23:25:16;10.97;;;8.33;;
15573;SDS011;7888;46.748;8.102;2024-03-08T23:28:06;12.23;;;8.57;;
15573;SDS011;7888;46.748;8.102;2024-03-08T23:30:34;11.93;;;8.60;;
15573;SDS011;7888;46.748;8.102;2024-03-08T23:33:08;11.90;;;8.60;;
15573;SDS011;7888;46.748;8.102;2024-03-08T23:35:37;11.70;;;8.50;;
15573;SDS011;7888;46.748;8.102;2024-03-08T23:38:04;9.03;;;7.57;;
15573;SDS011;7888;46.748;8.102;2024-03-08T23:40:32;11.70;;;8.10;;
15573;SDS011;7888;46.748;8.102;2024-03-08T23:42:58;9.47;;;7.27;;
15573;SDS011;7888;46.748;8.102;2024-03-08T23:45:24;9.80;;;8.03;;
15573;SDS011;7888;46.748;8.102;2024-03-08T23:47:53;10.17;;;7.27;;
15573;SDS011;7888;46.748;8.102;2024-03-08T23:50:22;8.27;;;6.70;;
15573;SDS011;7888;46.748;8.102;2024-03-08T23:52:55;8.27;;;6.83;;
15573;SDS011;7888;46.748;8.102;2024-03-08T23:55:26;6.13;;;5.00;;
15573;SDS011;7888;46.748;8.102;2024-03-08T23:58:07;6.63;;;5.03;;
